Time;durP1;ratioP1;P1;durP2;ratioP2;P2;SDS_P1;SDS_P2;PMS_P1;PMS_P2;Temp;Humidity;BMP_temperature;BMP_pressure;BME280_temperature;BME280_humidity;BME280_pressure;Samples;Min_cycle;Max_cycle;Signal;HPM_P1;HPM_P2
2023/07/03 00:00:59;;;;;;;8.70;5.30;;;;;;;19.85;80.91;98186.73;105863;1257;61256;-23
2023/07/03 00:03:27;;;;;;;3.90;3.30;;;;;;;19.67;82.34;98181.63;105666;1255;61099;-23
2023/07/03 00:05:54;;;;;;;7.50;4.50;;;;;;;20.01;81.70;98182.51;105911;1254;74426;-23
2023/07/03 00:08:21;;;;;;;6.50;4.20;;;;;;;20.39;79.82;98183.88;105921;1257;74391;-23
2023/07/03 00:10:48;;;;;;;7.90;4.50;;;;;;;20.35;79.52;98186.75;105956;1257;72637;-23
2023/07/03 00:13:16;;;;;;;9.00;5.80;;;;;;;20.09;80.13;98185.83;105937;1251;61090;-23
2023/07/03 00:15:43;;;;;;;7.10;5.20;;;;;;;19.76;81.73;98184.14;105939;1256;61199;-23
2023/07/03 00:18:10;;;;;;;6.30;3.90;;;;;;;19.55;82.98;98192.64;105974;1255;74336;-23
2023/07/03 00:20:39;;;;;;;5.90;4.20;;;;;;;19.89;82.29;98188.05;105672;1261;74293;-23
2023/07/03 00:23:06;;;;;;;5.50;4.00;;;;;;;20.27;80.24;98188.13;105734;1255;71553;-23
2023/07/03 00:25:33;;;;;;;4.80;4.10;;;;;;;20.29;79.67;98184.05;105956;1251;61058;-24
2023/07/03 00:28:00;;;;;;;8.70;4.30;;;;;;;20.03;80.18;98181.73;105907;1257;61189;-23
2023/07/03 00:30:26;;;;;;;7.90;5.00;;;;;;;19.79;81.30;98189.90;105774;1251;73409;-23
2023/07/03 00:32:54;;;;;;;6.50;3.80;;;;;;;19.59;82.45;98188.95;105940;1254;74131;-23
2023/07/03 00:35:21;;;;;;;4.70;3.40;;;;;;;19.97;81.71;98190.77;105919;1251;72970;-23
2023/07/03 00:37:48;;;;;;;7.50;4.10;;;;;;;20.37;79.42;98196.84;105822;1256;61057;-23
2023/07/03 00:40:17;;;;;;;6.70;4.00;;;;;;;20.35;79.04;98196.14;105829;1251;61100;-24
2023/07/03 00:42:44;;;;;;;6.70;4.80;;;;;;;20.15;79.75;98195.73;105898;1257;73793;-24
2023/07/03 00:45:11;;;;;;;6.70;5.10;;;;;;;19.92;80.64;98198.17;105907;1256;74162;-24
2023/07/03 00:47:38;;;;;;;6.90;4.90;;;;;;;19.66;81.68;98197.63;105990;1251;72658;-23
2023/07/03 00:50:05;;;;;;;4.80;2.90;;;;;;;19.49;82.78;98198.16;105679;1258;61651;-23
2023/07/03 00:52:33;;;;;;;7.90;4.00;;;;;;;19.89;82.57;98204.16;105671;1251;61274;-23
2023/07/03 00:55:00;;;;;;;6.30;4.10;;;;;;;20.27;80.21;98210.75;105956;1257;73719;-23
2023/07/03 00:57:27;;;;;;;7.60;4.40;;;;;;;20.26;79.79;98210.20;105863;1256;74310;-23
2023/07/03 00:59:54;;;;;;;6.80;4.70;;;;;;;19.98;80.68;98212.15;105778;1255;72479;-23
2023/07/03 01:02:34;;;;;;;7.00;5.10;;;;;;;19.66;82.36;98214.98;105864;1257;61150;-23
2023/07/03 01:05:09;;;;;;;4.80;3.40;;;;;;;19.46;83.18;98217.73;105687;1267;61157;-23
2023/07/03 01:07:36;;;;;;;4.50;3.60;;;;;;;19.84;83.02;98217.58;105865;1251;73707;-23
2023/07/03 01:10:16;;;;;;;7.50;4.00;;;;;;;20.19;80.88;98221.85;105775;1261;74243;-24
2023/07/03 01:12:47;;;;;;;6.40;4.40;;;;;;;20.09;80.66;98227.74;105849;1257;73017;-23
2023/07/03 01:15:21;;;;;;;8.80;5.20;;;;;;;19.85;81.24;98227.56;105719;1258;61064;-24
2023/07/03 01:17:50;;;;;;;8.10;5.10;;;;;;;19.59;82.30;98225.75;105733;1251;61096;-24
2023/07/03 01:20:18;;;;;;;4.40;3.30;;;;;;;19.40;83.15;98230.17;105784;1259;73696;-23
2023/07/03 01:22:58;;;;;;;4.50;3.70;;;;;;;19.77;82.90;98236.23;105760;1259;74456;-24
2023/07/03 01:25:25;;;;;;;5.80;3.90;;;;;;;20.16;80.60;98238.26;105793;1258;73227;-23
2023/07/03 01:27:53;;;;;;;5.40;4.40;;;;;;;20.09;80.16;98236.11;105630;1254;61165;-24
2023/07/03 01:30:20;;;;;;;7.80;4.50;;;;;;;19.84;81.17;98242.89;105649;1258;61592;-23
2023/07/03 01:32:51;;;;;;;6.20;4.70;;;;;;;19.49;82.52;98240.20;105711;1251;73706;-23
2023/07/03 01:35:18;;;;;;;5.00;3.90;;;;;;;19.28;83.92;98247.94;105710;1251;73094;-23
2023/07/03 01:37:49;;;;;;;6.80;3.70;;;;;;;19.62;83.57;98247.14;105745;1254;72645;-23
2023/07/03 01:40:17;;;;;;;5.80;4.10;;;;;;;20.00;81.41;98250.80;105761;1251;61199;-24
2023/07/03 01:42:45;;;;;;;9.20;4.60;;;;;;;19.94;80.89;98250.48;105610;1257;61182;-24
2023/07/03 01:45:13;;;;;;;5.80;5.20;;;;;;;19.71;81.65;98252.71;105946;1251;73749;-23
2023/07/03 01:47:40;;;;;;;7.40;4.80;;;;;;;19.45;82.60;98259.41;105905;1251;74101;-23
2023/07/03 01:50:12;;;;;;;7.10;3.50;;;;;;;19.24;83.67;98265.81;105697;1251;72417;-23
2023/07/03 01:52:40;;;;;;;4.40;3.50;;;;;;;19.60;83.20;98264.98;105426;1260;61111;-24
2023/07/03 01:55:11;;;;;;;5.90;4.20;;;;;;;20.01;81.07;98268.61;105713;1257;61164;-24
2023/07/03 01:57:44;;;;;;;6.00;4.40;;;;;;;20.01;80.27;98269.86;105802;1254;74389;-23
2023/07/03 02:00:14;;;;;;;4.70;4.20;;;;;;;19.79;80.61;98269.04;105624;1254;74318;-23
2023/07/03 02:02:46;;;;;;;10.90;5.50;;;;;;;19.51;81.21;98275.95;105738;1259;71360;-24
2023/07/03 02:05:26;;;;;;;5.40;4.00;;;;;;;19.25;82.73;98277.30;105701;1260;61862;-24
2023/07/03 02:07:55;;;;;;;7.80;4.20;;;;;;;19.58;82.47;98275.99;105477;1261;61177;-23
2023/07/03 02:10:22;;;;;;;5.20;4.20;;;;;;;19.86;80.68;98276.98;105606;1251;71912;-24
2023/07/03 02:12:50;;;;;;;6.00;4.80;;;;;;;19.78;80.50;98283.08;105720;1257;74194;-24
2023/07/03 02:15:20;;;;;;;6.10;4.80;;;;;;;19.53;81.22;98286.83;105831;1257;72610;-24
2023/07/03 02:17:51;;;;;;;7.50;5.10;;;;;;;19.28;82.21;98287.14;105937;1252;61106;-24
2023/07/03 02:20:20;;;;;;;4.80;3.30;;;;;;;19.06;83.12;98289.59;105805;1256;61269;-24
2023/07/03 02:22:47;;;;;;;6.20;3.90;;;;;;;19.45;82.96;98291.05;105698;1257;72387;-23
2023/07/03 02:25:15;;;;;;;6.60;3.70;;;;;;;19.88;80.83;98287.50;105687;1251;74196;-24
2023/07/03 02:27:43;;;;;;;6.10;4.40;;;;;;;19.90;79.79;98290.67;105944;1253;72612;-23
2023/07/03 02:30:12;;;;;;;9.20;4.60;;;;;;;19.71;80.00;98293.92;105943;1251;61093;-24
2023/07/03 02:32:40;;;;;;;6.00;4.50;;;;;;;19.45;80.72;98297.11;105714;1251;61057;-23
2023/07/03 02:35:08;;;;;;;5.20;3.80;;;;;;;19.19;82.07;98305.39;105784;1251;74073;-24
2023/07/03 02:37:36;;;;;;;9.50;3.90;;;;;;;19.46;82.14;98307.05;105631;1251;73026;-23
2023/07/03 02:40:13;;;;;;;5.40;3.80;;;;;;;19.82;80.47;98304.07;105908;1251;72308;-24
2023/07/03 02:42:41;;;;;;;6.50;4.30;;;;;;;19.73;80.07;98307.20;105852;1251;61153;-24
2023/07/03 02:45:09;;;;;;;5.80;5.00;;;;;;;19.49;80.89;98309.90;105905;1252;61166;-23
2023/07/03 02:47:37;;;;;;;5.40;4.50;;;;;;;19.19;82.21;98312.16;105749;1259;72958;-24
2023/07/03 02:50:07;;;;;;;5.40;3.20;;;;;;;18.97;83.36;98311.11;105992;1257;72825;-23
2023/07/03 02:52:34;;;;;;;5.90;4.00;;;;;;;19.30;83.03;98314.02;105688;1260;71882;-23
2023/07/03 02:55:02;;;;;;;5.30;4.10;;;;;;;19.66;81.29;98317.76;103896;1257;2646138;-24
2023/07/03 02:57:30;;;;;;;6.20;4.30;;;;;;;19.63;80.82;98322.02;105785;1251;61055;-24
2023/07/03 02:59:58;;;;;;;6.70;4.20;;;;;;;19.46;81.04;98325.86;105780;1251;72425;-24
2023/07/03 03:02:25;;;;;;;7.90;5.40;;;;;;;19.26;81.50;98325.38;105611;1257;74297;-24
2023/07/03 03:04:53;;;;;;;5.00;3.50;;;;;;;19.10;82.24;98325.36;105923;1251;72841;-24
2023/07/03 03:07:20;;;;;;;4.70;3.40;;;;;;;19.56;82.22;98333.88;105841;1255;61814;-24
2023/07/03 03:09:47;;;;;;;7.00;4.30;;;;;;;20.20;78.93;98330.91;105807;1252;61200;-24
2023/07/03 03:12:14;;;;;;;7.60;4.20;;;;;;;20.23;77.58;98334.66;105642;1251;72531;-24
2023/07/03 03:14:41;;;;;;;7.10;4.30;;;;;;;19.98;77.85;98343.08;105955;1251;73213;-23
2023/07/03 03:17:08;;;;;;;5.50;4.20;;;;;;;19.72;78.64;98344.26;105769;1252;72640;-24
2023/07/03 03:19:36;;;;;;;9.40;4.60;;;;;;;19.48;79.52;98349.34;105644;1257;61163;-23
2023/07/03 03:22:03;;;;;;;5.60;3.20;;;;;;;19.30;80.45;98352.87;105688;1256;61095;-23
2023/07/03 03:24:31;;;;;;;7.60;3.70;;;;;;;19.70;79.78;98352.39;105708;1257;73643;-23
2023/07/03 03:27:00;;;;;;;4.80;3.80;;;;;;;20.12;77.99;98355.44;105938;1256;74312;-23
2023/07/03 03:29:27;;;;;;;6.60;4.40;;;;;;;20.15;77.33;98362.84;105959;1251;72638;-24
2023/07/03 03:31:54;;;;;;;8.30;4.10;;;;;;;19.91;77.64;98365.92;105862;1254;61128;-24
2023/07/03 03:34:22;;;;;;;6.90;3.90;;;;;;;19.66;78.72;98367.61;105944;1257;61099;-23
2023/07/03 03:36:49;;;;;;;5.30;4.50;;;;;;;19.45;79.68;98372.73;105856;1251;74339;-24
2023/07/03 03:39:16;;;;;;;5.80;3.10;;;;;;;19.29;80.54;98372.20;105703;1256;74342;-23
2023/07/03 03:41:43;;;;;;;6.40;3.20;;;;;;;19.75;80.11;98375.07;105616;1257;73029;-24
2023/07/03 03:44:10;;;;;;;11.10;4.00;;;;;;;20.27;78.17;98376.21;105796;1252;61173;-24
2023/07/03 03:46:39;;;;;;;5.30;4.30;;;;;;;20.35;77.19;98381.52;105820;1257;61170;-23
2023/07/03 03:49:09;;;;;;;8.10;4.30;;;;;;;20.17;77.54;98382.14;105923;1254;73499;-23
2023/07/03 03:51:36;;;;;;;5.50;4.40;;;;;;;19.96;78.76;98383.77;105890;1257;74171;-23
2023/07/03 03:54:04;;;;;;;7.10;5.40;;;;;;;19.70;79.99;98383.67;105986;1256;72657;-23
2023/07/03 03:56:32;;;;;;;5.80;3.30;;;;;;;19.51;80.92;98385.16;105484;1254;61809;-24
2023/07/03 03:59:01;;;;;;;6.70;3.70;;;;;;;19.98;80.52;98386.64;105866;1251;61096;-24
2023/07/03 04:01:28;;;;;;;5.00;4.20;;;;;;;20.44;78.17;98387.48;105944;1251;73761;-24
2023/07/03 04:03:56;;;;;;;5.70;4.10;;;;;;;20.45;76.23;98386.65;105871;1251;74352;-24
2023/07/03 04:06:22;;;;;;;6.10;4.10;;;;;;;20.24;75.14;98390.36;105790;1251;72628;-23
2023/07/03 04:08:50;;;;;;;8.90;4.50;;;;;;;20.19;74.93;98389.15;105899;1252;61136;-23
2023/07/03 04:11:17;;;;;;;5.20;4.00;;;;;;;20.30;74.79;98392.95;105778;1251;61125;-23
2023/07/03 04:13:45;;;;;;;4.90;3.70;;;;;;;20.35;75.32;98393.11;105783;1251;73498;-23
2023/07/03 04:16:12;;;;;;;6.80;3.70;;;;;;;20.94;73.24;98394.11;105859;1251;74296;-23
2023/07/03 04:18:40;;;;;;;3.90;3.60;;;;;;;21.39;70.59;98400.59;105735;1251;72534;-24
2023/07/03 04:21:07;;;;;;;6.90;4.20;;;;;;;21.59;70.05;98401.42;105715;1254;61046;-23
2023/07/03 04:23:35;;;;;;;10.80;4.20;;;;;;;21.33;69.70;98398.92;105753;1257;61087;-23
2023/07/03 04:26:02;;;;;;;6.30;4.20;;;;;;;21.05;71.10;98407.11;105931;1251;73597;-23
2023/07/03 04:28:30;;;;;;;6.90;4.30;;;;;;;20.72;73.04;98412.77;105939;1257;74214;-23
2023/07/03 04:30:57;;;;;;;7.40;4.30;;;;;;;20.59;74.27;98415.58;105762;1251;72649;-24
2023/07/03 04:33:25;;;;;;;6.30;3.10;;;;;;;20.52;75.18;98416.65;105800;1251;61839;-24
2023/07/03 04:35:52;;;;;;;5.20;3.20;;;;;;;20.97;74.12;98420.61;105818;1257;61176;-23
2023/07/03 04:38:23;;;;;;;6.10;3.90;;;;;;;21.26;71.57;98421.45;105787;1251;73806;-24
2023/07/03 04:40:51;;;;;;;6.90;3.90;;;;;;;21.18;71.49;98423.94;105939;1251;74856;-24
2023/07/03 04:43:18;;;;;;;8.40;3.90;;;;;;;21.02;72.06;98428.38;105958;1251;72505;-24
2023/07/03 04:45:48;;;;;;;5.50;3.70;;;;;;;20.87;72.06;98429.84;105711;1251;61100;-23
2023/07/03 04:48:18;;;;;;;7.00;3.60;;;;;;;20.74;72.61;98427.48;105596;1251;61076;-23
2023/07/03 04:50:49;;;;;;;5.00;4.00;;;;;;;20.50;72.86;98432.35;105646;1254;73684;-24
2023/07/03 04:53:20;;;;;;;5.70;3.80;;;;;;;20.15;74.08;98434.56;105570;1260;74295;-24
2023/07/03 04:55:48;;;;;;;3.20;2.70;;;;;;;20.07;75.37;98434.39;105514;1254;73211;-23
2023/07/03 04:58:16;;;;;;;6.60;3.40;;;;;;;20.58;73.72;98433.85;105908;1257;61134;-24
2023/07/03 05:00:43;;;;;;;4.30;3.20;;;;;;;21.10;71.96;98430.65;105852;1251;61127;-23
2023/07/03 05:03:10;;;;;;;6.30;3.70;;;;;;;21.37;70.73;98439.41;105829;1252;73107;-23
2023/07/03 05:05:37;;;;;;;4.80;3.10;;;;;;;21.30;69.95;98435.85;105957;1251;74315;-24
2023/07/03 05:08:04;;;;;;;6.10;3.30;;;;;;;21.05;70.45;98442.25;105915;1255;72214;-24
2023/07/03 05:10:31;;;;;;;9.00;3.90;;;;;;;20.79;71.65;98443.98;105727;1251;61141;-24
2023/07/03 05:12:58;;;;;;;6.10;3.10;;;;;;;20.68;71.30;98446.66;105979;1251;61179;-24
2023/07/03 05:15:25;;;;;;;3.80;3.00;;;;;;;20.48;71.59;98452.53;105979;1251;73714;-23
2023/07/03 05:17:54;;;;;;;5.00;3.30;;;;;;;20.22;72.60;98451.89;105840;1257;74374;-24
2023/07/03 05:20:22;;;;;;;3.00;2.00;;;;;;;20.56;73.68;98455.37;105854;1252;72461;-23
2023/07/03 05:22:49;;;;;;;3.50;2.80;;;;;;;21.40;69.26;98458.66;105591;1251;61110;-27
2023/07/03 05:25:16;;;;;;;6.50;2.50;;;;;;;22.07;66.92;98461.70;105867;1257;61138;-24
2023/07/03 05:27:43;;;;;;;3.70;2.60;;;;;;;22.12;64.25;98458.80;105894;1251;74623;-23
2023/07/03 05:30:11;;;;;;;6.20;3.00;;;;;;;22.18;65.00;98462.71;105949;1251;74281;-23
2023/07/03 05:32:39;;;;;;;7.90;2.90;;;;;;;22.21;65.03;98467.30;105575;1251;71500;-23
2023/07/03 05:35:08;;;;;;;10.10;3.40;;;;;;;22.18;64.74;98464.70;105644;1251;61068;-23
2023/07/03 05:37:36;;;;;;;4.60;3.00;;;;;;;22.09;64.43;98465.21;105644;1254;61191;-23
2023/07/03 05:40:06;;;;;;;4.40;2.80;;;;;;;22.36;64.07;98469.11;105934;1251;74031;-23
2023/07/03 05:42:34;;;;;;;4.40;2.90;;;;;;;22.65;64.49;98467.70;105729;1260;74213;-23
2023/07/03 05:45:02;;;;;;;5.20;3.00;;;;;;;22.67;62.95;98470.79;105824;1256;72545;-24
2023/07/03 05:47:29;;;;;;;2.90;2.60;;;;;;;22.56;63.03;98469.91;105714;1259;61218;-23
2023/07/03 05:49:57;;;;;;;5.30;3.20;;;;;;;22.22;63.01;98471.70;105968;1252;61115;-23
2023/07/03 05:52:24;;;;;;;6.10;3.00;;;;;;;21.70;64.99;98472.98;105896;1251;73886;-23
2023/07/03 05:54:52;;;;;;;3.00;2.50;;;;;;;21.68;65.84;98476.09;106033;1253;74229;-23
2023/07/03 05:57:20;;;;;;;5.00;3.10;;;;;;;21.67;65.78;98480.81;105885;1251;72588;-23
2023/07/03 05:59:48;;;;;;;3.10;2.50;;;;;;;21.76;62.42;98481.23;105848;1252;61208;-23
2023/07/03 06:02:16;;;;;;;3.60;2.60;;;;;;;21.79;61.57;98481.55;105593;1253;61193;-23
2023/07/03 06:04:43;;;;;;;3.40;2.30;;;;;;;21.79;60.75;98487.34;105884;1251;73630;-24
2023/07/03 06:07:11;;;;;;;3.70;2.30;;;;;;;21.82;61.25;98494.38;105849;1252;74359;-23
2023/07/03 06:09:41;;;;;;;5.30;2.30;;;;;;;21.75;61.03;98499.79;105773;1251;72544;-23
2023/07/03 06:12:08;;;;;;;2.80;2.30;;;;;;;21.76;61.20;98500.64;105666;1251;61032;-23
2023/07/03 06:14:35;;;;;;;2.70;1.90;;;;;;;21.97;60.81;98505.91;105791;1251;61511;-23
2023/07/03 06:17:03;;;;;;;3.80;2.30;;;;;;;22.20;59.94;98510.73;105762;1255;73859;-23
2023/07/03 06:19:32;;;;;;;3.50;2.50;;;;;;;22.41;61.10;98510.61;105845;1251;74786;-23
2023/07/03 06:21:59;;;;;;;3.50;2.50;;;;;;;22.52;58.98;98513.70;105648;1251;72788;-23
2023/07/03 06:24:27;;;;;;;3.10;2.20;;;;;;;22.65;57.79;98516.89;105464;1254;61246;-23
2023/07/03 06:26:55;;;;;;;3.10;2.50;;;;;;;22.74;58.41;98520.56;105901;1251;61134;-23
2023/07/03 06:29:22;;;;;;;14.20;3.00;;;;;;;22.74;58.72;98524.33;105630;1251;74485;-23
2023/07/03 06:31:49;;;;;;;4.30;2.50;;;;;;;22.88;59.43;98519.98;105879;1251;74394;-24
2023/07/03 06:34:16;;;;;;;8.30;2.70;;;;;;;23.11;59.99;98522.87;106005;1251;73354;-24
2023/07/03 06:36:43;;;;;;;3.30;2.50;;;;;;;23.26;59.00;98524.41;105614;1251;61182;-23
2023/07/03 06:39:11;;;;;;;3.60;2.60;;;;;;;23.43;58.93;98525.29;105801;1257;61226;-23
2023/07/03 06:41:39;;;;;;;3.00;2.20;;;;;;;23.51;56.51;98530.64;105718;1254;72755;-23
2023/07/03 06:44:11;;;;;;;3.90;2.30;;;;;;;23.57;56.72;98530.09;105766;1251;74333;-23
2023/07/03 06:46:39;;;;;;;3.40;2.50;;;;;;;23.72;56.26;98530.57;105320;1251;71547;-23
2023/07/03 06:49:07;;;;;;;3.70;2.30;;;;;;;23.72;56.01;98532.90;105651;1257;61282;-23
2023/07/03 06:51:36;;;;;;;2.90;2.20;;;;;;;23.51;55.45;98530.15;105975;1254;61121;-23
2023/07/03 06:54:03;;;;;;;3.80;2.40;;;;;;;23.39;55.78;98531.37;105958;1251;74126;-23
2023/07/03 06:56:30;;;;;;;3.70;2.20;;;;;;;23.50;56.35;98534.00;105978;1251;74401;-23
2023/07/03 06:58:58;;;;;;;3.80;2.30;;;;;;;23.48;55.10;98537.22;105859;1253;71537;-23
2023/07/03 07:01:26;;;;;;;4.10;2.40;;;;;;;23.27;55.37;98536.47;105664;1257;61034;-24
2023/07/03 07:03:53;;;;;;;3.60;2.30;;;;;;;22.97;55.10;98536.98;105571;1252;61190;-23
2023/07/03 07:06:22;;;;;;;5.10;2.30;;;;;;;22.99;55.93;98543.65;105868;1251;73842;-23
2023/07/03 07:08:50;;;;;;;2.90;2.20;;;;;;;23.11;55.16;98542.82;105557;1257;74122;-23
2023/07/03 07:11:20;;;;;;;3.40;2.20;;;;;;;23.29;55.31;98541.06;105987;1252;72611;-23
2023/07/03 07:13:48;;;;;;;3.40;1.80;;;;;;;23.39;55.10;98541.16;105790;1253;61117;-23
2023/07/03 07:16:21;;;;;;;4.40;2.50;;;;;;;23.37;53.61;98539.20;105715;1256;61152;-24
2023/07/03 07:18:51;;;;;;;5.50;2.00;;;;;;;23.47;53.11;98539.27;105804;1253;73598;-23
2023/07/03 07:21:18;;;;;;;5.20;2.20;;;;;;;23.58;53.37;98544.34;105686;1257;74414;-23
2023/07/03 07:23:53;;;;;;;3.20;2.00;;;;;;;23.54;53.87;98549.00;105785;1256;71545;-23
2023/07/03 07:26:21;;;;;;;3.20;2.00;;;;;;;23.54;53.21;98551.66;105623;1254;61134;-23
2023/07/03 07:28:48;;;;;;;3.00;1.90;;;;;;;23.55;51.71;98544.45;105500;1252;61253;-23
2023/07/03 07:31:24;;;;;;;3.30;1.90;;;;;;;23.57;49.57;98543.33;105867;1251;74379;-23
2023/07/03 07:33:51;;;;;;;4.20;2.00;;;;;;;23.44;50.94;98547.16;105826;1251;74342;-23
2023/07/03 07:36:19;;;;;;;4.10;2.20;;;;;;;23.42;51.93;98555.11;106001;1256;72661;-23
2023/07/03 07:38:49;;;;;;;4.30;1.90;;;;;;;23.53;50.50;98557.35;105691;1251;61088;-23
2023/07/03 07:41:16;;;;;;;3.10;1.90;;;;;;;23.74;50.44;98557.36;105762;1259;61203;-23
2023/07/03 07:43:43;;;;;;;8.30;2.20;;;;;;;23.61;51.07;98558.05;105897;1251;73877;-23
2023/07/03 07:46:10;;;;;;;2.70;1.80;;;;;;;24.06;50.55;98558.33;105900;1251;74245;-23
2023/07/03 07:48:38;;;;;;;5.30;1.80;;;;;;;24.37;47.51;98556.75;105971;1251;73377;-23
2023/07/03 07:51:09;;;;;;;5.00;1.80;;;;;;;24.44;46.90;98560.45;105771;1254;61098;-23
2023/07/03 07:53:36;;;;;;;1.90;1.60;;;;;;;24.63;48.51;98561.08;105737;1251;61102;-23
2023/07/03 07:56:08;;;;;;;2.30;2.10;;;;;;;24.57;47.14;98561.65;105744;1251;73853;-23
2023/07/03 07:58:35;;;;;;;3.50;1.90;;;;;;;24.64;47.63;98560.60;105728;1257;76827;-23
2023/07/03 08:01:02;;;;;;;3.90;1.70;;;;;;;24.79;47.80;98552.41;105963;1252;72689;-23
2023/07/03 08:03:29;;;;;;;2.20;1.60;;;;;;;24.80;46.71;98553.88;105725;1251;61196;-24
2023/07/03 08:06:01;;;;;;;2.90;1.60;;;;;;;24.72;46.74;98552.23;105885;1257;61169;-24
2023/07/03 08:08:30;;;;;;;4.00;2.10;;;;;;;24.72;45.92;98554.80;105657;1251;73531;-23
2023/07/03 08:10:59;;;;;;;3.80;1.80;;;;;;;24.76;47.69;98552.45;105834;1251;72886;-24
2023/07/03 08:13:28;;;;;;;1.80;1.50;;;;;;;24.86;46.83;98550.77;105722;1251;73083;-23
2023/07/03 08:15:55;;;;;;;3.60;1.70;;;;;;;24.79;46.00;98549.52;105842;1251;61108;-23
2023/07/03 08:18:22;;;;;;;6.50;1.60;;;;;;;24.85;45.48;98554.23;105788;1257;61210;-23
2023/07/03 08:20:49;;;;;;;4.40;1.30;;;;;;;24.97;44.87;98556.61;105647;1251;73475;-23
2023/07/03 08:23:16;;;;;;;1.80;1.40;;;;;;;25.21;45.02;98557.46;105771;1251;74429;-23
2023/07/03 08:25:44;;;;;;;5.10;1.80;;;;;;;25.32;44.99;98559.92;105862;1251;72703;-23
2023/07/03 08:28:11;;;;;;;2.50;1.40;;;;;;;25.26;45.11;98563.96;105617;1251;61081;-23
2023/07/03 08:30:38;;;;;;;3.00;1.60;;;;;;;25.23;44.49;98566.27;105769;1255;61877;-23
2023/07/03 08:33:06;;;;;;;2.00;1.40;;;;;;;25.26;44.13;98564.50;105771;1254;74100;-23
2023/07/03 08:35:35;;;;;;;3.30;1.60;;;;;;;25.51;44.62;98566.80;105815;1254;74316;-23
2023/07/03 08:38:05;;;;;;;5.30;1.40;;;;;;;25.78;43.88;98565.25;105738;1254;74125;-23
2023/07/03 08:40:33;;;;;;;5.40;1.80;;;;;;;25.47;41.98;98567.23;105695;1251;61157;-23
2023/07/03 08:43:00;;;;;;;2.90;1.60;;;;;;;25.31;44.01;98568.26;105889;1256;61112;-23
2023/07/03 08:45:49;;;;;;;2.70;1.60;;;;;;;25.62;44.06;98569.95;105956;1251;73767;-23
2023/07/03 08:48:19;;;;;;;4.80;1.60;;;;;;;25.25;43.14;98573.85;105800;1254;74342;-25
2023/07/03 08:50:48;;;;;;;2.30;1.70;;;;;;;24.94;44.37;98571.83;105746;1251;72505;-23
2023/07/03 08:53:17;;;;;;;5.00;1.90;;;;;;;25.01;45.06;98573.95;105685;1254;61148;-23
2023/07/03 08:56:16;;;;;;;3.00;1.80;;;;;;;25.04;44.90;98578.98;105560;1254;61474;-23
2023/07/03 08:58:44;;;;;;;3.10;1.70;;;;;;;25.03;42.77;98575.44;105723;1254;73845;-23
2023/07/03 09:01:27;;;;;;;2.70;1.50;;;;;;;25.14;44.13;98575.90;105982;1251;74313;-23
2023/07/03 09:04:14;;;;;;;5.40;1.50;;;;;;;25.06;44.19;98575.63;105807;1253;72533;-24
2023/07/03 09:06:54;;;;;;;2.30;1.50;;;;;;;25.06;40.46;98570.59;105960;1251;61143;-23
2023/07/03 09:09:29;;;;;;;4.40;1.40;;;;;;;24.96;40.97;98575.64;105814;1257;61105;-23
2023/07/03 09:12:08;;;;;;;3.30;1.40;;;;;;;25.06;40.30;98582.31;105707;1251;73756;-23
2023/07/03 09:14:43;;;;;;;5.70;2.00;;;;;;;25.14;41.19;98582.34;105770;1251;74341;-23
2023/07/03 09:17:10;;;;;;;3.50;1.50;;;;;;;24.97;40.36;98583.48;105690;1251;72761;-23
2023/07/03 09:19:39;;;;;;;3.40;1.70;;;;;;;24.95;40.71;98588.46;105629;1251;61083;-23
2023/07/03 09:22:07;;;;;;;3.40;1.70;;;;;;;25.02;40.81;98584.42;105643;1254;61117;-23
2023/07/03 09:24:39;;;;;;;3.80;1.70;;;;;;;25.08;41.40;98590.89;105778;1251;73789;-23
2023/07/03 09:27:09;;;;;;;6.70;2.00;;;;;;;25.20;39.63;98587.59;105802;1257;74258;-23
2023/07/03 09:29:36;;;;;;;2.40;1.70;;;;;;;25.31;41.37;98580.11;105623;1254;72739;-22
2023/07/03 09:32:05;;;;;;;2.60;1.80;;;;;;;25.16;42.32;98586.27;105406;1254;61253;-24
2023/07/03 09:35:10;;;;;;;2.20;1.80;;;;;;;25.18;41.72;98581.15;105641;1252;61447;-22
2023/07/03 09:37:38;;;;;;;4.60;2.00;;;;;;;25.33;41.68;98588.98;105957;1251;74430;-22
2023/07/03 09:40:09;;;;;;;3.30;1.80;;;;;;;25.58;39.93;98585.69;105767;1251;74339;-22
2023/07/03 09:42:37;;;;;;;3.60;2.10;;;;;;;25.87;40.09;98586.81;105764;1254;72709;-22
2023/07/03 09:45:11;;;;;;;3.50;1.80;;;;;;;25.76;38.34;98586.86;105899;1251;61177;-22
2023/07/03 09:47:40;;;;;;;3.80;1.50;;;;;;;25.77;37.39;98587.27;105680;1260;61182;-23
2023/07/03 09:50:08;;;;;;;3.50;1.70;;;;;;;25.57;38.04;98590.69;105720;1251;72878;-22
2023/07/03 09:52:43;;;;;;;3.50;1.70;;;;;;;25.66;40.70;98590.66;105648;1251;74121;-22
2023/07/03 09:55:30;;;;;;;3.60;1.60;;;;;;;25.78;38.47;98591.34;105565;1253;73196;-22
2023/07/03 09:57:57;;;;;;;3.00;2.00;;;;;;;25.91;38.52;98589.56;105635;1251;61146;-22
2023/07/03 10:00:25;;;;;;;3.00;1.80;;;;;;;25.98;38.81;98587.08;105648;1256;61122;-23
2023/07/03 10:02:56;;;;;;;3.30;1.80;;;;;;;26.03;37.79;98587.60;105676;1259;73802;-22
2023/07/03 10:05:32;;;;;;;3.50;1.70;;;;;;;26.29;38.92;98585.79;105730;1257;73314;-22
2023/07/03 10:08:05;;;;;;;3.70;1.80;;;;;;;26.07;37.92;98591.77;105749;1251;71542;-22
2023/07/03 10:10:34;;;;;;;3.20;1.90;;;;;;;26.12;36.73;98586.27;105723;1259;61142;-23
2023/07/03 10:13:13;;;;;;;2.50;1.70;;;;;;;25.91;35.32;98587.91;105759;1257;61166;-23
2023/07/03 10:15:41;;;;;;;3.00;1.60;;;;;;;25.97;36.62;98588.77;105616;1251;73707;-22
2023/07/03 10:18:33;;;;;;;2.30;1.60;;;;;;;26.39;36.63;98589.66;105815;1256;74340;-22
2023/07/03 10:21:02;;;;;;;1.90;1.60;;;;;;;26.52;36.45;98594.80;105739;1251;72452;-23
2023/07/03 10:23:31;;;;;;;3.90;1.70;;;;;;;26.42;35.89;98593.67;105703;1251;61049;-23
2023/07/03 10:26:04;;;;;;;3.70;1.80;;;;;;;26.67;36.11;98589.39;105727;1257;61128;-23
2023/07/03 10:28:37;;;;;;;1.90;1.40;;;;;;;26.60;36.00;98589.42;105639;1251;73792;-23
2023/07/03 10:31:07;;;;;;;2.40;1.70;;;;;;;26.58;37.28;98585.33;105606;1253;73494;-24
2023/07/03 10:33:40;;;;;;;33.80;3.20;;;;;;;26.46;35.54;98584.60;105744;1254;72635;-24
2023/07/03 10:36:10;;;;;;;2.60;1.80;;;;;;;26.45;36.64;98590.23;105648;1254;61199;-24
2023/07/03 10:38:41;;;;;;;4.20;1.80;;;;;;;26.50;36.48;98583.59;105636;1251;61106;-24
2023/07/03 10:41:37;;;;;;;5.70;1.70;;;;;;;26.30;37.85;98585.77;105728;1251;73898;-24
2023/07/03 10:44:09;;;;;;;4.70;2.30;;;;;;;26.51;37.23;98591.05;105621;1251;74354;-23
2023/07/03 10:46:39;;;;;;;3.60;1.80;;;;;;;26.60;35.71;98591.83;105635;1251;72497;-23
2023/07/03 10:49:09;;;;;;;9.10;2.10;;;;;;;26.80;36.77;98590.95;105947;1251;61138;-23
2023/07/03 10:51:45;;;;;;;4.20;1.90;;;;;;;27.09;36.60;98596.83;105556;1259;61160;-23
2023/07/03 10:54:26;;;;;;;2.60;1.90;;;;;;;27.08;35.24;98592.66;105815;1251;73629;-23
2023/07/03 10:56:55;;;;;;;5.40;2.10;;;;;;;27.11;35.13;98593.78;105785;1251;74092;-23
2023/07/03 10:59:28;;;;;;;3.70;1.90;;;;;;;26.69;33.29;98586.33;105579;1251;71247;-23
2023/07/03 11:02:10;;;;;;;3.60;1.60;;;;;;;26.48;33.90;98592.50;105409;1259;61231;-23
2023/07/03 11:05:03;;;;;;;3.80;1.90;;;;;;;26.57;33.24;98599.03;105737;1256;61164;-23
2023/07/03 11:08:03;;;;;;;3.70;1.90;;;;;;;26.59;33.58;98595.60;105793;1251;74652;-23
2023/07/03 11:10:38;;;;;;;4.90;2.20;;;;;;;26.82;34.37;98594.56;105366;1262;74247;-23
2023/07/03 11:13:15;;;;;;;2.50;1.90;;;;;;;26.94;34.24;98597.95;105809;1251;72620;-24
2023/07/03 11:15:45;;;;;;;4.30;1.70;;;;;;;26.77;32.26;98595.11;105706;1251;61027;-23
2023/07/03 11:18:32;;;;;;;2.10;1.80;;;;;;;26.87;34.67;98592.92;105829;1256;61141;-24
2023/07/03 11:21:02;;;;;;;4.70;2.10;;;;;;;26.49;34.49;98590.80;105800;1251;72887;-23
2023/07/03 11:23:48;;;;;;;2.40;1.50;;;;;;;26.59;35.04;98591.48;105793;1251;75931;-24
2023/07/03 11:26:26;;;;;;;2.90;1.50;;;;;;;26.78;34.67;98595.02;105840;1251;72372;-24
2023/07/03 11:28:56;;;;;;;4.20;1.70;;;;;;;26.98;34.51;98596.03;105661;1251;61151;-23
2023/07/03 11:31:24;;;;;;;3.00;1.80;;;;;;;27.00;34.56;98594.41;105722;1257;61160;-23
2023/07/03 11:33:52;;;;;;;2.80;1.90;;;;;;;26.80;33.42;98587.36;105649;1251;73777;-24
2023/07/03 11:36:37;;;;;;;2.30;1.80;;;;;;;26.59;34.37;98583.21;105623;1251;75201;-23